sensor_id;sensor_type;location;lat;lon;timestamp;pressure;altitude;pressure_sealevel;temperature;humidity
65800;BME280;52544;48.116;11.660;2023-06-10T00:00:23;95207.75;;;16.86;100.00
65800;BME280;52544;48.116;11.660;2023-06-10T00:02:49;95205.53;;;16.75;100.00
65800;BME280;52544;48.116;11.660;2023-06-10T00:05:14;95200.34;;;16.73;100.00
65800;BME280;52544;48.116;11.660;2023-06-10T00:07:41;95201.44;;;16.56;100.00
65800;BME280;52544;48.116;11.660;2023-06-10T00:10:07;95203.75;;;16.59;100.00
65800;BME280;52544;48.116;11.660;2023-06-10T00:12:33;95203.88;;;16.66;100.00
65800;BME280;52544;48.116;11.660;2023-06-10T00:15:04;95207.44;;;16.58;100.00
65800;BME280;52544;48.116;11.660;2023-06-10T00:17:30;95206.00;;;16.47;100.00
65800;BME280;52544;48.116;11.660;2023-06-10T00:19:56;95204.38;;;16.38;100.00
65800;BME280;52544;48.116;11.660;2023-06-10T00:22:22;95203.75;;;16.36;100.00
65800;BME280;52544;48.116;11.660;2023-06-10T00:24:47;95203.50;;;16.46;100.00
65800;BME280;52544;48.116;11.660;2023-06-10T00:27:13;95206.47;;;16.51;100.00
65800;BME280;52544;48.116;11.660;2023-06-10T00:29:38;95209.28;;;16.58;100.00
65800;BME280;52544;48.116;11.660;2023-06-10T00:32:04;95211.19;;;16.49;100.00
65800;BME280;52544;48.116;11.660;2023-06-10T00:34:30;95207.06;;;16.38;100.00
65800;BME280;52544;48.116;11.660;2023-06-10T00:36:55;95212.66;;;16.52;100.00
65800;BME280;52544;48.116;11.660;2023-06-10T00:39:21;95210.44;;;16.55;100.00
65800;BME280;52544;48.116;11.660;2023-06-10T00:41:46;95208.44;;;16.57;100.00
65800;BME280;52544;48.116;11.660;2023-06-10T00:44:12;95216.91;;;16.61;100.00
65800;BME280;52544;48.116;11.660;2023-06-10T00:46:37;95215.56;;;16.65;100.00
65800;BME280;52544;48.116;11.660;2023-06-10T00:49:03;95215.84;;;16.47;100.00
65800;BME280;52544;48.116;11.660;2023-06-10T00:51:29;95213.78;;;16.26;100.00
65800;BME280;52544;48.116;11.660;2023-06-10T00:53:55;95208.59;;;16.33;100.00
65800;BME280;52544;48.116;11.660;2023-06-10T00:56:20;95209.75;;;16.30;100.00
65800;BME280;52544;48.116;11.660;2023-06-10T00:58:47;95210.00;;;16.20;100.00
65800;BME280;52544;48.116;11.660;2023-06-10T01:01:13;95214.28;;;16.30;100.00
65800;BME280;52544;48.116;11.660;2023-06-10T01:03:39;95214.56;;;16.35;100.00
65800;BME280;52544;48.116;11.660;2023-06-10T01:09:17;95210.28;;;16.25;100.00
65800;BME280;52544;48.116;11.660;2023-06-10T01:11:47;95216.22;;;16.05;100.00
65800;BME280;52544;48.116;11.660;2023-06-10T01:14:15;95214.28;;;15.90;100.00
65800;BME280;52544;48.116;11.660;2023-06-10T01:16:41;95215.19;;;15.74;100.00
65800;BME280;52544;48.116;11.660;2023-06-10T01:19:07;95225.34;;;15.63;100.00
65800;BME280;52544;48.116;11.660;2023-06-10T01:21:33;95223.84;;;15.77;100.00
65800;BME280;52544;48.116;11.660;2023-06-10T01:23:58;95224.03;;;15.67;100.00
65800;BME280;52544;48.116;11.660;2023-06-10T01:26:30;95218.53;;;15.68;100.00
65800;BME280;52544;48.116;11.660;2023-06-10T01:29:14;95216.50;;;15.62;100.00
65800;BME280;52544;48.116;11.660;2023-06-10T01:31:44;95219.06;;;15.47;100.00
65800;BME280;52544;48.116;11.660;2023-06-10T01:34:16;95221.88;;;15.46;100.00
65800;BME280;52544;48.116;11.660;2023-06-10T01:36:46;95226.25;;;15.39;100.00
65800;BME280;52544;48.116;11.660;2023-06-10T01:39:14;95226.91;;;15.24;100.00
65800;BME280;52544;48.116;11.660;2023-06-10T01:41:41;95216.41;;;15.39;100.00
65800;BME280;52544;48.116;11.660;2023-06-10T01:44:06;95217.94;;;15.34;100.00
65800;BME280;52544;48.116;11.660;2023-06-10T01:46:32;95226.91;;;15.16;100.00
65800;BME280;52544;48.116;11.660;2023-06-10T01:48:57;95226.91;;;15.16;100.00
65800;BME280;52544;48.116;11.660;2023-06-10T01:51:22;95227.25;;;15.30;100.00
65800;BME280;52544;48.116;11.660;2023-06-10T01:53:48;95233.56;;;15.20;100.00
65800;BME280;52544;48.116;11.660;2023-06-10T01:56:13;95230.94;;;15.12;100.00
65800;BME280;52544;48.116;11.660;2023-06-10T01:58:43;95237.59;;;15.08;100.00
65800;BME280;52544;48.116;11.660;2023-06-10T02:01:09;95239.75;;;15.05;100.00
65800;BME280;52544;48.116;11.660;2023-06-10T02:03:35;95246.41;;;14.92;100.00
65800;BME280;52544;48.116;11.660;2023-06-10T02:06:00;95241.91;;;14.77;100.00
65800;BME280;52544;48.116;11.660;2023-06-10T02:08:25;95241.91;;;14.85;100.00
65800;BME280;52544;48.116;11.660;2023-06-10T02:10:53;95239.06;;;14.94;100.00
65800;BME280;52544;48.116;11.660;2023-06-10T02:13:18;95236.91;;;14.98;100.00
65800;BME280;52544;48.116;11.660;2023-06-10T02:15:43;95230.75;;;14.97;100.00
65800;BME280;52544;48.116;11.660;2023-06-10T02:18:09;95225.25;;;14.91;100.00
65800;BME280;52544;48.116;11.660;2023-06-10T02:20:37;95221.09;;;14.88;100.00
65800;BME280;52544;48.116;11.660;2023-06-10T02:23:02;95226.75;;;14.77;100.00
65800;BME280;52544;48.116;11.660;2023-06-10T02:25:28;95234.91;;;14.75;100.00
65800;BME280;52544;48.116;11.660;2023-06-10T02:27:53;95231.91;;;14.62;100.00
65800;BME280;52544;48.116;11.660;2023-06-10T02:30:19;95229.75;;;14.66;100.00
65800;BME280;52544;48.116;11.660;2023-06-10T02:32:44;95226.91;;;14.67;100.00
65800;BME280;52544;48.116;11.660;2023-06-10T02:35:17;95234.56;;;14.62;100.00
65800;BME280;52544;48.116;11.660;2023-06-10T02:37:43;95233.75;;;14.94;100.00
65800;BME280;52544;48.116;11.660;2023-06-10T02:40:09;95237.94;;;15.13;100.00
65800;BME280;52544;48.116;11.660;2023-06-10T02:42:35;95234.91;;;14.75;100.00
65800;BME280;52544;48.116;11.660;2023-06-10T02:45:01;95224.56;;;14.64;100.00
65800;BME280;52544;48.116;11.660;2023-06-10T02:47:26;95228.25;;;14.71;100.00
65800;BME280;52544;48.116;11.660;2023-06-10T02:49:52;95233.88;;;14.60;100.00
65800;BME280;52544;48.116;11.660;2023-06-10T02:52:17;95229.75;;;14.58;100.00
65800;BME280;52544;48.116;11.660;2023-06-10T02:54:43;95232.66;;;14.38;100.00
65800;BME280;52544;48.116;11.660;2023-06-10T02:57:08;95227.13;;;14.23;100.00
65800;BME280;52544;48.116;11.660;2023-06-10T02:59:35;95224.97;;;14.27;100.00
65800;BME280;52544;48.116;11.660;2023-06-10T03:02:01;95239.53;;;14.49;100.00
65800;BME280;52544;48.116;11.660;2023-06-10T03:04:26;95229.75;;;14.82;100.00
65800;BME280;52544;48.116;11.660;2023-06-10T03:06:54;95234.06;;;14.59;100.00
65800;BME280;52544;48.116;11.660;2023-06-10T03:09:19;95234.50;;;14.46;100.00
65800;BME280;52544;48.116;11.660;2023-06-10T03:11:45;95236.22;;;14.63;100.00
65800;BME280;52544;48.116;11.660;2023-06-10T03:14:10;95246.75;;;14.89;100.00
65800;BME280;52544;48.116;11.660;2023-06-10T03:16:36;95243.75;;;15.00;100.00
65800;BME280;52544;48.116;11.660;2023-06-10T03:19:06;95247.91;;;15.03;100.00
65800;BME280;52544;48.116;11.660;2023-06-10T03:21:32;95250.72;;;14.69;100.00
65800;BME280;52544;48.116;11.660;2023-06-10T03:23:57;95256.19;;;14.59;100.00
65800;BME280;52544;48.116;11.660;2023-06-10T03:26:23;95254.84;;;14.55;100.00
65800;BME280;52544;48.116;11.660;2023-06-10T03:28:48;95253.78;;;14.40;100.00
65800;BME280;52544;48.116;11.660;2023-06-10T03:31:14;95258.09;;;14.33;100.00
65800;BME280;52544;48.116;11.660;2023-06-10T03:33:42;95257.75;;;14.28;100.00
65800;BME280;52544;48.116;11.660;2023-06-10T03:36:07;95265.44;;;14.39;100.00
65800;BME280;52544;48.116;11.660;2023-06-10T03:38:33;95258.25;;;14.31;100.00
65800;BME280;52544;48.116;11.660;2023-06-10T03:40:58;95260.25;;;14.29;100.00
65800;BME280;52544;48.116;11.660;2023-06-10T03:43:23;95259.41;;;14.29;100.00
65800;BME280;52544;48.116;11.660;2023-06-10T03:45:49;95264.03;;;14.18;100.00
65800;BME280;52544;48.116;11.660;2023-06-10T03:48:14;95268.44;;;14.44;100.00
65800;BME280;52544;48.116;11.660;2023-06-10T03:50:40;95273.00;;;14.60;100.00
65800;BME280;52544;48.116;11.660;2023-06-10T03:53:05;95268.84;;;14.49;100.00
65800;BME280;52544;48.116;11.660;2023-06-10T03:55:30;95263.97;;;14.53;100.00
65800;BME280;52544;48.116;11.660;2023-06-10T03:57:56;95268.44;;;14.44;100.00
65800;BME280;52544;48.116;11.660;2023-06-10T04:00:22;95275.09;;;14.48;100.00
65800;BME280;52544;48.116;11.660;2023-06-10T04:02:48;95270.13;;;14.45;100.00
65800;BME280;52544;48.116;11.660;2023-06-10T04:05:17;95282.63;;;14.53;100.00
65800;BME280;52544;48.116;11.660;2023-06-10T04:07:43;95286.50;;;14.66;100.00
65800;BME280;52544;48.116;11.660;2023-06-10T04:10:10;95278.88;;;14.80;100.00
65800;BME280;52544;48.116;11.660;2023-06-10T04:12:36;95288.84;;;14.78;100.00
65800;BME280;52544;48.116;11.660;2023-06-10T04:15:02;95287.38;;;14.91;100.00
65800;BME280;52544;48.116;11.660;2023-06-10T04:17:28;95289.88;;;14.93;100.00
65800;BME280;52544;48.116;11.660;2023-06-10T04:19:53;95283.88;;;14.99;100.00
65800;BME280;52544;48.116;11.660;2023-06-10T04:22:20;95280.38;;;15.07;100.00
65800;BME280;52544;48.116;11.660;2023-06-10T04:24:46;95281.91;;;15.34;100.00
65800;BME280;52544;48.116;11.660;2023-06-10T04:27:11;95291.22;;;15.38;100.00
65800;BME280;52544;48.116;11.660;2023-06-10T04:29:36;95294.06;;;15.36;100.00
65800;BME280;52544;48.116;11.660;2023-06-10T04:32:02;95295.19;;;15.42;100.00
65800;BME280;52544;48.116;11.660;2023-06-10T04:34:28;95300.53;;;15.50;100.00
65800;BME280;52544;48.116;11.660;2023-06-10T04:36:53;95299.91;;;15.64;100.00
65800;BME280;52544;48.116;11.660;2023-06-10T04:39:19;95308.22;;;15.78;100.00
65800;BME280;52544;48.116;11.660;2023-06-10T04:41:45;95292.31;;;15.92;100.00
65800;BME280;52544;48.116;11.660;2023-06-10T04:44:11;95302.16;;;15.92;100.00
65800;BME280;52544;48.116;11.660;2023-06-10T04:46:37;95295.81;;;16.01;100.00
65800;BME280;52544;48.116;11.660;2023-06-10T04:49:02;95301.63;;;16.05;100.00
65800;BME280;52544;48.116;11.660;2023-06-10T04:51:28;95301.78;;;16.11;100.00
65800;BME280;52544;48.116;11.660;2023-06-10T04:53:53;95295.41;;;16.20;100.00
65800;BME280;52544;48.116;11.660;2023-06-10T04:56:19;95299.75;;;16.21;100.00
65800;BME280;52544;48.116;11.660;2023-06-10T04:58:45;95291.88;;;16.28;100.00
65800;BME280;52544;48.116;11.660;2023-06-10T05:01:10;95299.50;;;16.39;100.00
65800;BME280;52544;48.116;11.660;2023-06-10T05:03:36;95297.84;;;16.38;100.00
65800;BME280;52544;48.116;11.660;2023-06-10T05:06:01;95294.94;;;16.48;100.00
65800;BME280;52544;48.116;11.660;2023-06-10T05:08:26;95291.94;;;16.51;100.00
65800;BME280;52544;48.116;11.660;2023-06-10T05:10:52;95292.91;;;16.58;100.00
65800;BME280;52544;48.116;11.660;2023-06-10T05:13:17;95298.75;;;16.62;100.00
65800;BME280;52544;48.116;11.660;2023-06-10T05:15:43;95302.25;;;16.62;100.00
65800;BME280;52544;48.116;11.660;2023-06-10T05:18:10;95297.00;;;16.69;100.00
65800;BME280;52544;48.116;11.660;2023-06-10T05:20:38;95304.53;;;16.73;100.00
65800;BME280;52544;48.116;11.660;2023-06-10T05:23:03;95300.34;;;16.79;100.00
65800;BME280;52544;48.116;11.660;2023-06-10T05:25:30;95296.31;;;16.83;100.00
65800;BME280;52544;48.116;11.660;2023-06-10T05:27:56;95301.25;;;16.94;100.00
65800;BME280;52544;48.116;11.660;2023-06-10T05:30:21;95298.34;;;17.04;100.00
65800;BME280;52544;48.116;11.660;2023-06-10T05:32:48;95299.81;;;17.07;100.00
65800;BME280;52544;48.116;11.660;2023-06-10T05:35:13;95294.31;;;17.08;100.00
65800;BME280;52544;48.116;11.660;2023-06-10T05:37:38;95301.25;;;17.17;100.00
65800;BME280;52544;48.116;11.660;2023-06-10T05:40:04;95300.00;;;17.28;100.00
65800;BME280;52544;48.116;11.660;2023-06-10T05:42:30;95299.31;;;17.34;100.00
65800;BME280;52544;48.116;11.660;2023-06-10T05:44:55;95297.94;;;17.38;100.00
65800;BME280;52544;48.116;11.660;2023-06-10T05:47:21;95301.44;;;17.39;100.00
65800;BME280;52544;48.116;11.660;2023-06-10T05:49:46;95309.75;;;17.44;100.00
65800;BME280;52544;48.116;11.660;2023-06-10T05:52:13;95302.13;;;17.56;100.00
65800;BME280;52544;48.116;11.660;2023-06-10T05:54:39;95302.69;;;17.66;100.00
65800;BME280;52544;48.116;11.660;2023-06-10T05:57:04;95303.16;;;17.69;100.00
65800;BME280;52544;48.116;11.660;2023-06-10T05:59:31;95306.81;;;17.77;100.00
65800;BME280;52544;48.116;11.660;2023-06-10T06:01:56;95311.28;;;17.84;100.00
65800;BME280;52544;48.116;11.660;2023-06-10T06:04:22;95300.44;;;17.92;100.00
65800;BME280;52544;48.116;11.660;2023-06-10T06:06:47;95307.22;;;18.03;100.00
65800;BME280;52544;48.116;11.660;2023-06-10T06:09:13;95304.81;;;18.08;100.00
65800;BME280;52544;48.116;11.660;2023-06-10T06:11:38;95304.09;;;18.14;100.00
65800;BME280;52544;48.116;11.660;2023-06-10T06:14:03;95310.34;;;18.21;100.00
65800;BME280;52544;48.116;11.660;2023-06-10T06:16:29;95301.97;;;18.24;100.00
65800;BME280;52544;48.116;11.660;2023-06-10T06:18:54;95313.59;;;18.32;100.00
65800;BME280;52544;48.116;11.660;2023-06-10T06:21:20;95309.53;;;18.36;100.00
65800;BME280;52544;48.116;11.660;2023-06-10T06:23:45;95311.91;;;18.45;100.00
65800;BME280;52544;48.116;11.660;2023-06-10T06:26:11;95308.94;;;18.55;100.00
65800;BME280;52544;48.116;11.660;2023-06-10T06:28:36;95307.56;;;18.59;100.00
65800;BME280;52544;48.116;11.660;2023-06-10T06:31:01;95303.13;;;18.66;100.00
65800;BME280;52544;48.116;11.660;2023-06-10T06:33:27;95301.25;;;18.67;100.00
65800;BME280;52544;48.116;11.660;2023-06-10T06:35:52;95301.84;;;18.62;100.00
65800;BME280;52544;48.116;11.660;2023-06-10T06:38:18;95309.31;;;18.67;100.00
65800;BME280;52544;48.116;11.660;2023-06-10T06:40:43;95311.00;;;18.53;100.00
65800;BME280;52544;48.116;11.660;2023-06-10T06:43:08;95314.59;;;18.45;100.00
65800;BME280;52544;48.116;11.660;2023-06-10T06:45:34;95320.44;;;18.49;100.00
65800;BME280;52544;48.116;11.660;2023-06-10T06:47:59;95311.38;;;18.50;100.00
65800;BME280;52544;48.116;11.660;2023-06-10T06:50:25;95320.44;;;18.49;100.00
65800;BME280;52544;48.116;11.660;2023-06-10T06:52:51;95312.47;;;18.41;100.00
65800;BME280;52544;48.116;11.660;2023-06-10T06:55:16;95312.13;;;18.44;100.00
65800;BME280;52544;48.116;11.660;2023-06-10T06:57:41;95315.44;;;18.46;100.00
65800;BME280;52544;48.116;11.660;2023-06-10T07:00:07;95320.88;;;18.53;100.00
65800;BME280;52544;48.116;11.660;2023-06-10T07:02:34;95318.09;;;18.61;100.00
65800;BME280;52544;48.116;11.660;2023-06-10T07:05:00;95306.09;;;18.71;100.00
65800;BME280;52544;48.116;11.660;2023-06-10T07:07:25;95312.84;;;18.82;100.00
65800;BME280;52544;48.116;11.660;2023-06-10T07:09:52;95316.94;;;19.00;100.00
65800;BME280;52544;48.116;11.660;2023-06-10T07:12:17;95322.91;;;19.16;100.00
65800;BME280;52544;48.116;11.660;2023-06-10T07:14:44;95320.94;;;19.25;100.00
65800;BME280;52544;48.116;11.660;2023-06-10T07:17:09;95323.09;;;19.36;100.00
65800;BME280;52544;48.116;11.660;2023-06-10T07:19:35;95334.47;;;19.81;100.00
65800;BME280;52544;48.116;11.660;2023-06-10T07:22:00;95329.06;;;20.03;100.00
65800;BME280;52544;48.116;11.660;2023-06-10T07:24:26;95320.25;;;20.15;100.00
65800;BME280;52544;48.116;11.660;2023-06-10T07:26:51;95326.84;;;20.41;100.00
65800;BME280;52544;48.116;11.660;2023-06-10T07:29:16;95325.91;;;20.55;100.00
65800;BME280;52544;48.116;11.660;2023-06-10T07:31:42;95318.75;;;20.76;100.00
65800;BME280;52544;48.116;11.660;2023-06-10T07:34:07;95320.88;;;20.87;100.00
65800;BME280;52544;48.116;11.660;2023-06-10T07:36:33;95321.16;;;21.05;100.00
65800;BME280;52544;48.116;11.660;2023-06-10T07:38:58;95322.63;;;21.08;100.00
65800;BME280;52544;48.116;11.660;2023-06-10T07:41:24;95321.59;;;21.15;100.00
65800;BME280;52544;48.116;11.660;2023-06-10T07:43:53;95325.34;;;21.21;100.00
65800;BME280;52544;48.116;11.660;2023-06-10T07:46:20;95317.69;;;21.31;100.00
65800;BME280;52544;48.116;11.660;2023-06-10T07:48:47;95322.25;;;21.24;100.00
65800;BME280;52544;48.116;11.660;2023-06-10T07:51:12;95315.25;;;21.43;100.00
65800;BME280;52544;48.116;11.660;2023-06-10T07:53:38;95309.88;;;21.43;100.00
65800;BME280;52544;48.116;11.660;2023-06-10T07:56:03;95316.09;;;21.43;100.00
65800;BME280;52544;48.116;11.660;2023-06-10T07:58:29;95313.19;;;21.52;100.00
65800;BME280;52544;48.116;11.660;2023-06-10T08:00:54;95311.97;;;21.48;100.00
65800;BME280;52544;48.116;11.660;2023-06-10T08:03:20;95319.00;;;21.55;100.00
65800;BME280;52544;48.116;11.660;2023-06-10T08:05:45;95307.81;;;21.65;100.00
65800;BME280;52544;48.116;11.660;2023-06-10T08:08:10;95312.38;;;21.64;100.00
65800;BME280;52544;48.116;11.660;2023-06-10T08:10:36;95318.63;;;21.71;100.00
65800;BME280;52544;48.116;11.660;2023-06-10T08:13:01;95306.19;;;21.77;100.00
65800;BME280;52544;48.116;11.660;2023-06-10T08:15:26;95315.91;;;21.91;100.00
65800;BME280;52544;48.116;11.660;2023-06-10T08:17:52;95321.50;;;21.90;100.00
65800;BME280;52544;48.116;11.660;2023-06-10T08:20:18;95314.25;;;21.90;100.00
65800;BME280;52544;48.116;11.660;2023-06-10T08:22:43;95309.28;;;21.94;100.00
65800;BME280;52544;48.116;11.660;2023-06-10T08:25:09;95305.34;;;21.90;100.00
65800;BME280;52544;48.116;11.660;2023-06-10T08:27:35;95312.38;;;22.04;100.00
65800;BME280;52544;48.116;11.660;2023-06-10T08:30:00;95312.19;;;22.06;100.00
65800;BME280;52544;48.116;11.660;2023-06-10T08:32:26;95315.28;;;22.09;100.00
65800;BME280;52544;48.116;11.660;2023-06-10T08:34:51;95315.91;;;22.11;100.00
65800;BME280;52544;48.116;11.660;2023-06-10T08:37:16;95311.19;;;22.13;100.00
65800;BME280;52544;48.116;11.660;2023-06-10T08:39:42;95306.81;;;22.19;100.00
65800;BME280;52544;48.116;11.660;2023-06-10T08:42:24;95314.03;;;22.25;100.00
65800;BME280;52544;48.116;11.660;2023-06-10T08:44:54;95326.47;;;22.33;99.77
65800;BME280;52544;48.116;11.660;2023-06-10T08:47:24;95326.06;;;22.36;93.88
65800;BME280;52544;48.116;11.660;2023-06-10T08:49:51;95325.88;;;22.31;91.21
65800;BME280;52544;48.116;11.660;2023-06-10T08:52:20;95311.53;;;22.37;97.13
65800;BME280;52544;48.116;11.660;2023-06-10T08:55:03;95319.41;;;22.38;100.00
65800;BME280;52544;48.116;11.660;2023-06-10T08:57:30;95322.53;;;22.29;100.00
65800;BME280;52544;48.116;11.660;2023-06-10T08:59:56;95313.81;;;22.33;100.00
65800;BME280;52544;48.116;11.660;2023-06-10T09:02:23;95307.59;;;22.39;100.00
65800;BME280;52544;48.116;11.660;2023-06-10T09:04:50;95304.03;;;22.45;100.00
65800;BME280;52544;48.116;11.660;2023-06-10T09:07:16;95311.91;;;22.47;100.00
65800;BME280;52544;48.116;11.660;2023-06-10T09:12:08;95307.75;;;22.64;100.00
65800;BME280;52544;48.116;11.660;2023-06-10T09:14:33;95317.47;;;22.65;100.00
65800;BME280;52544;48.116;11.660;2023-06-10T09:16:59;95312.75;;;22.54;100.00
65800;BME280;52544;48.116;11.660;2023-06-10T09:19:28;95313.63;;;22.35;98.94
65800;BME280;52544;48.116;11.660;2023-06-10T09:21:54;95312.78;;;22.41;100.00
65800;BME280;52544;48.116;11.660;2023-06-10T09:24:22;95307.75;;;22.58;100.00
65800;BME280;52544;48.116;11.660;2023-06-10T09:26:47;95307.13;;;22.62;100.00
65800;BME280;52544;48.116;11.660;2023-06-10T09:29:12;95310.22;;;22.59;100.00
65800;BME280;52544;48.116;11.660;2023-06-10T09:31:39;95309.41;;;22.65;95.21
65800;BME280;52544;48.116;11.660;2023-06-10T09:34:09;95311.69;;;22.68;90.73
65800;BME280;52544;48.116;11.660;2023-06-10T09:36:35;95309.34;;;22.72;91.34
65800;BME280;52544;48.116;11.660;2023-06-10T09:39:02;95305.41;;;22.75;96.43
65800;BME280;52544;48.116;11.660;2023-06-10T09:41:39;95316.38;;;22.86;94.94
65800;BME280;52544;48.116;11.660;2023-06-10T09:46:38;95318.47;;;22.78;98.38
65800;BME280;52544;48.116;11.660;2023-06-10T09:49:03;95307.19;;;23.01;100.00
65800;BME280;52544;48.116;11.660;2023-06-10T09:51:29;95315.22;;;23.20;100.00
65800;BME280;52544;48.116;11.660;2023-06-10T09:53:54;95316.69;;;23.10;93.42
65800;BME280;52544;48.116;11.660;2023-06-10T09:56:20;95310.06;;;23.12;90.02
65800;BME280;52544;48.116;11.660;2023-06-10T09:58:46;95310.06;;;23.06;93.76
65800;BME280;52544;48.116;11.660;2023-06-10T10:01:14;95314.16;;;23.22;96.57
65800;BME280;52544;48.116;11.660;2023-06-10T10:03:48;95316.94;;;23.40;97.50
65800;BME280;52544;48.116;11.660;2023-06-10T10:06:16;95322.81;;;23.30;93.76
65800;BME280;52544;48.116;11.660;2023-06-10T10:08:41;95319.66;;;23.40;94.14
65800;BME280;52544;48.116;11.660;2023-06-10T10:11:07;95317.47;;;23.55;90.20
65800;BME280;52544;48.116;11.660;2023-06-10T10:13:34;95318.06;;;23.57;91.79
65800;BME280;52544;48.116;11.660;2023-06-10T10:16:04;95323.13;;;23.47;89.79
65800;BME280;52544;48.116;11.660;2023-06-10T10:18:31;95324.69;;;23.30;86.36
65800;BME280;52544;48.116;11.660;2023-06-10T10:21:01;95325.03;;;23.08;85.60
65800;BME280;52544;48.116;11.660;2023-06-10T10:23:44;95323.78;;;23.11;91.54
65800;BME280;52544;48.116;11.660;2023-06-10T10:26:11;95327.53;;;23.03;87.18
65800;BME280;52544;48.116;11.660;2023-06-10T10:28:41;95320.44;;;23.15;88.39
65800;BME280;52544;48.116;11.660;2023-06-10T10:31:12;95323.63;;;23.37;89.04
65800;BME280;52544;48.116;11.660;2023-06-10T10:33:47;95325.19;;;23.13;84.27
65800;BME280;52544;48.116;11.660;2023-06-10T10:36:18;95320.59;;;23.20;80.64
65800;BME280;52544;48.116;11.660;2023-06-10T10:38:45;95320.22;;;23.10;81.23
65800;BME280;52544;48.116;11.660;2023-06-10T10:41:13;95320.94;;;22.92;84.12
65800;BME280;52544;48.116;11.660;2023-06-10T10:43:39;95320.50;;;22.89;87.42
65800;BME280;52544;48.116;11.660;2023-06-10T10:46:15;95311.09;;;23.11;92.99
65800;BME280;52544;48.116;11.660;2023-06-10T10:48:41;95310.47;;;23.48;94.28
65800;BME280;52544;48.116;11.660;2023-06-10T10:51:08;95308.50;;;23.68;86.24
65800;BME280;52544;48.116;11.660;2023-06-10T10:53:34;95310.09;;;23.76;87.65
65800;BME280;52544;48.116;11.660;2023-06-10T10:56:15;95319.72;;;23.65;80.87
65800;BME280;52544;48.116;11.660;2023-06-10T10:59:03;95316.84;;;23.53;81.79
65800;BME280;52544;48.116;11.660;2023-06-10T11:01:42;95317.75;;;23.47;78.30
65800;BME280;52544;48.116;11.660;2023-06-10T11:04:11;95312.28;;;23.22;81.59
65800;BME280;52544;48.116;11.660;2023-06-10T11:06:36;95310.66;;;23.14;82.09
65800;BME280;52544;48.116;11.660;2023-06-10T11:09:25;95308.03;;;23.01;81.97
65800;BME280;52544;48.116;11.660;2023-06-10T11:11:52;95305.97;;;22.97;80.57
65800;BME280;52544;48.116;11.660;2023-06-10T11:14:26;95305.97;;;22.97;83.38
65800;BME280;52544;48.116;11.660;2023-06-10T11:16:59;95313.88;;;22.91;86.45
65800;BME280;52544;48.116;11.660;2023-06-10T11:19:35;95305.97;;;23.03;85.10
65800;BME280;52544;48.116;11.660;2023-06-10T11:22:02;95309.03;;;23.45;82.39
65800;BME280;52544;48.116;11.660;2023-06-10T11:24:29;95310.53;;;23.73;81.24
65800;BME280;52544;48.116;11.660;2023-06-10T11:27:14;95305.91;;;23.80;75.58
65800;BME280;52544;48.116;11.660;2023-06-10T11:29:44;95303.09;;;23.68;81.74
65800;BME280;52544;48.116;11.660;2023-06-10T11:32:19;95300.28;;;24.06;82.43
65800;BME280;52544;48.116;11.660;2023-06-10T11:34:52;95313.38;;;24.28;71.39
65800;BME280;52544;48.116;11.660;2023-06-10T11:37:18;95304.72;;;24.62;69.66
65800;BME280;52544;48.116;11.660;2023-06-10T11:39:44;95294.44;;;24.53;72.63
65800;BME280;52544;48.116;11.660;2023-06-10T11:42:10;95307.66;;;24.17;76.10
65800;BME280;52544;48.116;11.660;2023-06-10T11:44:36;95300.72;;;24.03;77.17
65800;BME280;52544;48.116;11.660;2023-06-10T11:47:03;95294.16;;;24.17;72.03
65800;BME280;52544;48.116;11.660;2023-06-10T11:49:29;95290.25;;;24.38;68.27
65800;BME280;52544;48.116;11.660;2023-06-10T11:51:54;95293.09;;;24.62;62.72
65800;BME280;52544;48.116;11.660;2023-06-10T11:54:20;95283.44;;;24.84;66.54
65800;BME280;52544;48.116;11.660;2023-06-10T11:56:47;95282.91;;;25.12;67.08
65800;BME280;52544;48.116;11.660;2023-06-10T11:59:13;95281.16;;;25.18;57.54
65800;BME280;52544;48.116;11.660;2023-06-10T12:01:45;95284.94;;;25.17;60.95
65800;BME280;52544;48.116;11.660;2023-06-10T12:04:13;95280.53;;;25.34;66.57
65800;BME280;52544;48.116;11.660;2023-06-10T12:06:39;95285.66;;;25.54;56.58
65800;BME280;52544;48.116;11.660;2023-06-10T12:09:06;95275.66;;;25.55;58.36
65800;BME280;52544;48.116;11.660;2023-06-10T12:11:32;95274.63;;;25.67;64.47
65800;BME280;52544;48.116;11.660;2023-06-10T12:13:58;95274.56;;;25.86;56.25
65800;BME280;52544;48.116;11.660;2023-06-10T12:16:23;95265.00;;;25.95;61.11
65800;BME280;52544;48.116;11.660;2023-06-10T12:18:49;95271.06;;;26.09;66.20
65800;BME280;52544;48.116;11.660;2023-06-10T12:21:18;95266.09;;;26.17;58.50
65800;BME280;52544;48.116;11.660;2023-06-10T12:26:43;95264.47;;;26.52;52.50
65800;BME280;52544;48.116;11.660;2023-06-10T12:34:32;95267.28;;;26.10;52.85
65800;BME280;52544;48.116;11.660;2023-06-10T12:36:59;95264.56;;;26.22;57.48
65800;BME280;52544;48.116;11.660;2023-06-10T12:39:25;95265.75;;;26.49;52.75
65800;BME280;52544;48.116;11.660;2023-06-10T12:41:51;95259.34;;;26.67;55.23
65800;BME280;52544;48.116;11.660;2023-06-10T12:44:17;95261.94;;;26.62;53.03
65800;BME280;52544;48.116;11.660;2023-06-10T12:46:42;95257.59;;;26.61;55.96
65800;BME280;52544;48.116;11.660;2023-06-10T12:49:08;95263.03;;;26.26;61.69
65800;BME280;52544;48.116;11.660;2023-06-10T12:51:33;95262.44;;;25.88;65.48
65800;BME280;52544;48.116;11.660;2023-06-10T12:54:00;95263.50;;;25.46;63.23
65800;BME280;52544;48.116;11.660;2023-06-10T12:56:25;95266.41;;;25.44;63.39